Time;durP1;ratioP1;P1;durP2;ratioP2;P2;SDS_P1;SDS_P2;PMS_P1;PMS_P2;Temp;Humidity;BMP_temperature;BMP_pressure;BME280_temperature;BME280_humidity;BME280_pressure;Samples;Min_cycle;Max_cycle;Signal;HPM_P1;HPM_P2
2023/05/24 00:00:16;;;;;;;20.90;5.05;;;;;;;;;;5008694;28;20046;-68
2023/05/24 00:02:42;;;;;;;11.00;4.13;;;;;;;;;;5013139;28;20080;-68
2023/05/24 00:05:09;;;;;;;22.05;4.70;;;;;;;;;;5014751;28;20861;-68
2023/05/24 00:07:36;;;;;;;20.27;4.80;;;;;;;;;;5008388;28;20104;-68
2023/05/24 00:10:02;;;;;;;16.55;4.05;;;;;;;;;;5015238;28;20687;-68
2023/05/24 00:12:28;;;;;;;14.40;4.57;;;;;;;;;;5003370;28;20041;-68
2023/05/24 00:14:54;;;;;;;20.75;4.70;;;;;;;;;;4999305;28;20052;-68
2023/05/24 00:17:20;;;;;;;14.98;4.68;;;;;;;;;;5016220;28;20053;-68
2023/05/24 00:19:46;;;;;;;17.38;5.45;;;8.10;99.90;;;;;;5002349;28;20053;-68
2023/05/24 00:22:12;;;;;;;15.85;5.28;;;;;;;;;;5009013;28;20522;-68
2023/05/24 00:24:39;;;;;;;19.08;4.82;;;;;;;;;;5001190;28;20567;-68
2023/05/24 00:27:05;;;;;;;22.10;5.00;;;8.00;99.90;;;;;;5015810;28;20050;-68
2023/05/24 00:29:31;;;;;;;22.92;6.00;;;8.00;99.90;;;;;;5017700;28;20051;-68
2023/05/24 00:31:57;;;;;;;16.48;5.88;;;;;;;;;;4973699;28;20045;-68
2023/05/24 00:34:23;;;;;;;18.98;5.68;;;;;;;;;;5021557;28;20098;-68
2023/05/24 00:36:50;;;;;;;21.23;6.22;;;;;;;;;;5011128;28;20057;-68
2023/05/24 00:39:16;;;;;;;25.13;6.10;;;;;;;;;;5004032;28;20124;-68
2023/05/24 00:41:42;;;;;;;17.48;5.97;;;;;;;;;;5004980;28;20055;-68
2023/05/24 00:44:09;;;;;;;18.77;5.07;;;;;;;;;;5003936;28;20052;-68
2023/05/24 00:46:35;;;;;;;17.90;5.93;;;;;;;;;;5023633;28;20052;-68
2023/05/24 00:49:01;;;;;;;15.98;6.00;;;;;;;;;;5004607;28;20050;-68
2023/05/24 00:51:28;;;;;;;19.83;5.38;;;;;;;;;;5009851;28;20048;-68
2023/05/24 00:53:54;;;;;;;20.90;4.97;;;;;;;;;;5011422;28;20045;-68
2023/05/24 00:56:20;;;;;;;16.45;6.35;;;;;;;;;;4997160;28;20053;-68
2023/05/24 00:58:46;;;;;;;15.68;4.70;;;;;;;;;;4988772;28;20041;-68
2023/05/24 01:01:13;;;;;;;16.20;4.70;;;;;;;;;;4989184;28;20046;-68
2023/05/24 01:03:38;;;;;;;18.80;4.93;;;8.00;99.90;;;;;;5001141;28;20045;-68
2023/05/24 01:06:06;;;;;;;15.73;5.97;;;;;;;;;;4998928;28;20045;-68
2023/05/24 01:08:50;;;;;;;23.73;5.75;;;;;;;;;;5021209;28;20041;-68
2023/05/24 01:11:16;;;;;;;24.30;6.97;;;8.00;99.90;;;;;;4994947;28;20125;-68
2023/05/24 01:13:53;;;;;;;21.70;5.72;;;;;;;;;;5013560;28;20120;-68
2023/05/24 01:16:22;;;;;;;23.13;6.93;;;;;;;;;;5012167;28;20544;-68
2023/05/24 01:18:50;;;;;;;18.60;5.55;;;;;;;;;;4995930;28;20229;-68
2023/05/24 01:21:25;;;;;;;20.38;5.38;;;;;;;;;;5016158;28;20045;-68
2023/05/24 01:24:13;;;;;;;15.52;5.20;;;;;;;;;;4991796;28;20034;-68
2023/05/24 01:26:46;;;;;;;22.90;5.50;;;;;;;;;;4996118;28;20048;-68
2023/05/24 01:29:13;;;;;;;24.08;6.63;;;;;;;;;;5008636;28;20128;-68
2023/05/24 01:31:40;;;;;;;23.15;5.13;;;8.10;99.90;;;;;;5009674;28;20045;-68
2023/05/24 01:34:06;;;;;;;13.98;5.75;;;;;;;;;;5001623;28;20091;-68
2023/05/24 01:36:31;;;;;;;18.83;4.80;;;;;;;;;;5015519;28;20058;-68
2023/05/24 01:38:58;;;;;;;19.15;5.72;;;;;;;;;;5014396;28;20049;-68
2023/05/24 01:41:40;;;;;;;18.75;6.15;;;;;;;;;;5013186;28;20046;-68
2023/05/24 01:44:25;;;;;;;23.10;5.95;;;;;;;;;;4996690;28;20081;-68
2023/05/24 01:46:57;;;;;;;22.27;5.55;;;;;;;;;;4994787;28;20045;-68
2023/05/24 01:49:26;;;;;;;19.77;5.90;;;;;;;;;;5009324;28;20056;-68
2023/05/24 01:51:59;;;;;;;21.98;5.40;;;;;;;;;;5007062;28;20049;-68
2023/05/24 01:54:26;;;;;;;19.83;5.22;;;;;;;;;;5020850;28;20769;-68
2023/05/24 01:56:54;;;;;;;21.75;5.47;;;;;;;;;;5002392;28;20049;-68
2023/05/24 01:59:21;;;;;;;16.75;5.00;;;;;;;;;;5020418;28;20112;-68
2023/05/24 02:01:48;;;;;;;22.52;7.03;;;7.90;99.90;;;;;;5022044;28;20090;-68
2023/05/24 02:04:14;;;;;;;25.80;6.28;;;;;;;;;;4995902;28;20121;-68
2023/05/24 02:06:40;;;;;;;21.25;6.47;;;;;;;;;;5009960;28;20038;-68
2023/05/24 02:09:06;;;;;;;16.98;5.63;;;;;;;;;;4993025;28;20058;-68
2023/05/24 02:11:32;;;;;;;20.73;4.75;;;;;;;;;;5009198;28;20091;-68
2023/05/24 02:13:57;;;;;;;21.00;6.32;;;7.90;99.90;;;;;;4990610;28;20038;-68
2023/05/24 02:16:25;;;;;;;21.90;5.43;;;;;;;;;;5020739;28;20049;-68
2023/05/24 02:18:51;;;;;;;24.40;5.50;;;;;;;;;;4988373;28;20049;-68
2023/05/24 02:21:17;;;;;;;16.98;4.40;;;;;;;;;;5007389;28;20053;-68
2023/05/24 02:23:43;;;;;;;18.38;5.15;;;;;;;;;;4994345;28;20049;-68
2023/05/24 02:26:11;;;;;;;21.98;5.07;;;;;;;;;;5013032;28;20045;-68
2023/05/24 02:28:37;;;;;;;21.48;5.00;;;;;;;;;;5014052;28;20056;-68
2023/05/24 02:31:03;;;;;;;21.73;5.63;;;;;;;;;;5010110;28;20060;-68
2023/05/24 02:33:29;;;;;;;21.73;5.50;;;;;;;;;;5008731;28;20400;-68
2023/05/24 02:35:56;;;;;;;16.55;5.63;;;;;;;;;;4995179;28;20112;-68
2023/05/24 02:38:22;;;;;;;19.60;5.30;;;;;;;;;;4988065;28;20129;-68
2023/05/24 02:40:48;;;;;;;18.55;6.25;;;;;;;;;;5010919;28;20038;-68
2023/05/24 02:43:14;;;;;;;20.17;5.60;;;;;;;;;;5008671;28;20046;-68
2023/05/24 02:45:40;;;;;;;20.20;5.47;;;;;;;;;;5009292;28;20861;-68
2023/05/24 02:48:06;;;;;;;19.38;5.10;;;;;;;;;;5008620;28;20369;-68
2023/05/24 02:50:33;;;;;;;22.45;5.07;;;;;;;;;;5006175;28;20080;-68
2023/05/24 02:52:59;;;;;;;18.30;5.00;;;;;;;;;;5017211;28;20038;-68
2023/05/24 02:55:25;;;;;;;14.50;4.22;;;;;;;;;;5018290;28;20551;-68
2023/05/24 02:57:52;;;;;;;21.65;4.78;;;;;;;;;;5015213;28;20048;-68
2023/05/24 03:00:19;;;;;;;17.85;5.20;;;;;;;;;;5008665;28;20111;-68
2023/05/24 03:02:46;;;;;;;14.95;4.82;;;;;;;;;;4994627;28;20129;-68
2023/05/24 03:05:12;;;;;;;16.60;5.43;;;;;;;;;;5013078;28;20511;-68
2023/05/24 03:07:38;;;;;;;20.48;5.47;;;;;;;;;;4991898;28;20496;-68
2023/05/24 03:10:04;;;;;;;17.52;4.78;;;;;;;;;;5006824;28;20096;-68
2023/05/24 03:12:30;;;;;;;14.43;4.63;;;;;;;;;;5016817;28;20041;-68
2023/05/24 03:14:56;;;;;;;15.18;5.38;;;;;;;;;;5016965;28;20034;-68
2023/05/24 03:17:22;;;;;;;14.65;4.78;;;;;;;;;;4997175;28;20376;-68
2023/05/24 03:19:48;;;;;;;29.58;5.80;;;7.60;99.90;;;;;;5020605;28;20042;-68
2023/05/24 03:22:14;;;;;;;16.90;4.10;;;;;;;;;;5020238;28;20856;-68
2023/05/24 03:24:40;;;;;;;22.00;4.90;;;;;;;;;;5015980;28;20507;-68
2023/05/24 03:27:07;;;;;;;13.48;5.22;;;;;;;;;;5010693;28;20058;-68
2023/05/24 03:29:33;;;;;;;18.27;5.55;;;;;;;;;;4986981;28;20037;-68
2023/05/24 03:31:59;;;;;;;21.58;5.03;;;;;;;;;;5013951;28;20091;-68
2023/05/24 03:34:25;;;;;;;20.25;5.00;;;;;;;;;;5016156;28;20049;-68
2023/05/24 03:36:51;;;;;;;16.08;4.88;;;;;;;;;;4992900;28;20254;-68
2023/05/24 03:39:17;;;;;;;14.55;4.72;;;;;;;;;;5006059;28;20768;-68
2023/05/24 03:41:43;;;;;;;17.88;6.68;;;;;;;;;;5013575;28;20045;-68
2023/05/24 03:44:09;;;;;;;19.45;4.88;;;7.50;99.90;;;;;;5016074;28;20491;-68
2023/05/24 03:46:35;;;;;;;22.27;5.22;;;;;;;;;;5021502;28;20067;-68
2023/05/24 03:49:01;;;;;;;12.75;4.30;;;;;;;;;;5013688;28;20038;-69
2023/05/24 03:51:28;;;;;;;16.08;4.68;;;;;;;;;;4994658;28;20168;-68
2023/05/24 03:53:57;;;;;;;13.90;4.55;;;;;;;;;;5009703;28;20045;-68
2023/05/24 03:56:23;;;;;;;16.05;3.63;;;;;;;;;;4995343;28;20045;-68
2023/05/24 03:58:51;;;;;;;17.00;5.00;;;7.60;99.90;;;;;;5012244;28;20046;-68
2023/05/24 04:01:17;;;;;;;18.30;4.45;;;;;;;;;;5022760;28;20121;-68
2023/05/24 04:03:44;;;;;;;13.80;4.43;;;;;;;;;;5001687;28;20041;-68
2023/05/24 04:06:11;;;;;;;16.75;4.55;;;7.40;99.90;;;;;;5014000;28;20050;-68
2023/05/24 04:08:37;;;;;;;17.45;5.93;;;;;;;;;;4993990;28;20214;-68
2023/05/24 04:11:03;;;;;;;18.05;4.85;;;;;;;;;;5002176;28;20041;-68
2023/05/24 04:13:29;;;;;;;16.35;4.50;;;;;;;;;;5000755;28;20111;-68
2023/05/24 04:15:55;;;;;;;11.55;4.70;;;;;;;;;;5011690;28;20093;-68
2023/05/24 04:18:21;;;;;;;16.33;5.32;;;;;;;;;;5011787;28;20642;-68
2023/05/24 04:20:47;;;;;;;22.00;5.00;;;;;;;;;;5008348;28;20045;-68
2023/05/24 04:23:13;;;;;;;16.60;5.25;;;;;;;;;;4990888;28;20053;-68
2023/05/24 04:25:39;;;;;;;17.70;4.47;;;;;;;;;;5024040;28;20120;-68
2023/05/24 04:28:05;;;;;;;23.60;6.25;;;7.50;99.90;;;;;;5013270;28;20114;-68
2023/05/24 04:30:31;;;;;;;20.83;5.25;;;;;;;;;;5007612;28;20488;-68
2023/05/24 04:32:57;;;;;;;17.10;4.55;;;;;;;;;;4999940;28;20050;-68
2023/05/24 04:35:24;;;;;;;13.13;4.45;;;;;;;;;;4996384;28;20780;-68
2023/05/24 04:37:50;;;;;;;30.73;5.18;;;7.70;99.90;;;;;;4995464;28;20045;-68
2023/05/24 04:40:16;;;;;;;21.17;4.55;;;;;;;;;;4988845;28;20493;-68
2023/05/24 04:42:42;;;;;;;16.73;5.63;;;;;;;;;;4990643;28;20077;-68
2023/05/24 04:45:08;;;;;;;17.52;5.10;;;;;;;;;;4990976;28;20049;-68
2023/05/24 04:47:34;;;;;;;17.63;5.35;;;;;;;;;;5017932;28;20049;-68
2023/05/24 04:50:00;;;;;;;17.02;5.00;;;7.80;99.90;;;;;;5006106;28;20037;-68
2023/05/24 04:52:26;;;;;;;17.83;4.63;;;;;;;;;;5016790;28;20044;-68
2023/05/24 04:54:54;;;;;;;19.77;4.80;;;;;;;;;;4995498;28;20586;-68
2023/05/24 04:57:20;;;;;;;18.98;4.72;;;;;;;;;;4999421;28;20053;-68
2023/05/24 04:59:45;;;;;;;20.02;4.70;;;8.00;99.90;;;;;;5006395;28;20104;-68
2023/05/24 05:02:11;;;;;;;18.40;5.03;;;;;;;;;;5009492;28;20492;-68
2023/05/24 05:04:37;;;;;;;20.90;5.60;;;;;;;;;;4997100;28;20107;-68
2023/05/24 05:07:03;;;;;;;24.95;5.25;;;;;;;;;;5008849;28;20391;-68
2023/05/24 05:09:29;;;;;;;18.90;4.68;;;;;;;;;;5005322;28;20037;-68
2023/05/24 05:11:55;;;;;;;19.17;5.18;;;;;;;;;;5012415;28;20456;-68
2023/05/24 05:14:21;;;;;;;21.30;5.22;;;8.40;99.90;;;;;;5012428;28;20065;-68
2023/05/24 05:16:47;;;;;;;19.42;5.60;;;;;;;;;;5014286;28;20050;-68
2023/05/24 05:19:13;;;;;;;24.95;4.78;;;;;;;;;;4996841;28;20108;-68
2023/05/24 05:21:39;;;;;;;12.85;4.40;;;;;;;;;;5001968;28;20044;-68
2023/05/24 05:24:05;;;;;;;15.65;4.13;;;;;;;;;;5018821;28;20045;-68
2023/05/24 05:26:30;;;;;;;24.27;6.20;;;8.80;99.90;;;;;;5008907;28;20045;-68
2023/05/24 05:28:57;;;;;;;15.63;5.00;;;;;;;;;;5019664;28;20038;-68
2023/05/24 05:31:23;;;;;;;19.95;5.88;;;;;;;;;;5009966;28;20045;-68
2023/05/24 05:33:49;;;;;;;24.73;5.28;;;;;;;;;;5012286;28;20041;-68
2023/05/24 05:36:15;;;;;;;24.05;6.10;;;;;;;;;;5008746;28;20065;-68
2023/05/24 05:38:41;;;;;;;18.42;5.07;;;9.00;99.90;;;;;;5014028;28;20396;-68
2023/05/24 05:41:07;;;;;;;16.33;5.03;;;;;;;;;;5009116;28;20056;-68
2023/05/24 05:43:33;;;;;;;21.77;5.80;;;;;;;;;;4992123;28;20496;-68
2023/05/24 05:45:59;;;;;;;17.08;4.30;;;;;;;;;;5013879;28;20044;-69
2023/05/24 05:48:26;;;;;;;25.50;5.10;;;;;;;;;;5008612;28;20044;-68
2023/05/24 05:50:51;;;;;;;19.52;5.53;;;9.20;99.90;;;;;;5005886;28;20044;-68
2023/05/24 05:53:17;;;;;;;26.50;4.55;;;;;;;;;;5018195;28;20045;-69
2023/05/24 05:55:43;;;;;;;19.42;5.88;;;;;;;;;;5017903;28;20037;-69
2023/05/24 05:58:10;;;;;;;21.13;4.43;;;;;;;;;;5008354;28;20053;-69
2023/05/24 06:00:36;;;;;;;20.73;5.13;;;;;;;;;;5007375;28;20436;-69
2023/05/24 06:03:02;;;;;;;23.33;4.95;;;9.50;99.90;;;;;;5002590;28;20160;-69
2023/05/24 06:05:28;;;;;;;15.93;4.22;;;;;;;;;;4999993;28;20590;-68
2023/05/24 06:07:54;;;;;;;15.95;4.80;;;;;;;;;;5017508;28;20045;-69
2023/05/24 06:10:20;;;;;;;29.05;6.15;;;;;;;;;;5016129;28;20042;-69
2023/05/24 06:12:46;;;;;;;19.17;4.93;;;;;;;;;;5014765;28;20042;-69
2023/05/24 06:15:12;;;;;;;18.35;4.70;;;;;;;;;;4996240;28;20057;-69
2023/05/24 06:17:40;;;;;;;18.90;5.38;;;;;;;;;;5000734;28;20052;-69
2023/05/24 06:20:14;;;;;;;24.15;6.15;;;;;;;;;;5018987;28;20049;-71
2023/05/24 06:22:41;;;;;;;16.70;4.65;;;;;;;;;;5003572;28;20089;-68
2023/05/24 06:25:07;;;;;;;17.85;5.30;;;9.90;99.90;;;;;;5017532;28;20095;-68
2023/05/24 06:27:33;;;;;;;21.40;5.32;;;;;;;;;;5013640;28;20470;-68
2023/05/24 06:29:59;;;;;;;22.65;5.60;;;;;;;;;;5004559;28;20053;-68
2023/05/24 06:32:25;;;;;;;19.70;5.50;;;;;;;;;;5012666;28;20076;-67
2023/05/24 06:34:51;;;;;;;27.40;5.35;;;;;;;;;;5015631;28;20033;-68
2023/05/24 06:37:17;;;;;;;30.90;7.10;;;;;;;;;;5017149;28;20653;-68
2023/05/24 06:39:43;;;;;;;22.63;4.43;;;;;;;;;;5020427;28;20141;-67
2023/05/24 06:42:09;;;;;;;20.02;5.63;;;;;;;;;;5009520;28;20111;-72
2023/05/24 06:44:35;;;;;;;24.98;5.53;;;;;;;;;;5018350;28;20046;-70
2023/05/24 06:47:01;;;;;;;27.08;4.75;;;;;;;;;;5021087;28;20041;-69
2023/05/24 06:49:27;;;;;;;20.98;5.35;;;;;;;;;;5006960;28;20096;-67
2023/05/24 06:51:53;;;;;;;22.88;5.75;;;;;;;;;;5025780;28;20043;-67
2023/05/24 06:54:20;;;;;;;23.45;5.45;;;;;;;;;;5001745;28;20140;-68
2023/05/24 06:56:46;;;;;;;25.55;5.07;;;;;;;;;;5016117;28;20056;-68
2023/05/24 06:59:12;;;;;;;24.15;5.57;;;;;;;;;;4998234;28;20698;-71
2023/05/24 07:01:39;;;;;;;15.90;4.43;;;;;;;;;;5001833;28;20047;-69
2023/05/24 07:04:05;;;;;;;17.30;5.50;;;;;;;;;;5000989;28;20360;-69
2023/05/24 07:06:34;;;;;;;21.50;5.05;;;;;;;;;;5004201;28;20049;-69
2023/05/24 07:09:03;;;;;;;25.40;5.25;;;;;;;;;;5004031;28;20049;-71
2023/05/24 07:11:29;;;;;;;24.35;5.28;;;;;;;;;;5004967;28;20068;-71
2023/05/24 07:13:56;;;;;;;21.88;4.65;;;;;;;;;;4999891;28;20056;-69
2023/05/24 07:16:22;;;;;;;19.42;4.50;;;;;;;;;;5022005;28;20041;-78
2023/05/24 07:18:48;;;;;;;23.13;4.80;;;;;;;;;;5008150;28;20044;-76
2023/05/24 07:21:14;;;;;;;20.90;4.38;;;;;;;;;;5021576;28;20037;-79
2023/05/24 07:23:40;;;;;;;21.63;4.70;;;;;;;;;;5020039;28;20064;-81
2023/05/24 07:26:07;;;;;;;22.02;4.75;;;;;;;;;;5007533;28;20412;-77
2023/05/24 07:28:36;;;;;;;19.17;4.40;;;;;;;;;;5012012;28;20041;-76
2023/05/24 07:31:02;;;;;;;17.10;5.20;;;12.80;99.90;;;;;;5004907;28;20395;-76
2023/05/24 07:33:28;;;;;;;10.45;3.42;;;;;;;;;;5017946;28;20048;-71
2023/05/24 07:35:54;;;;;;;19.17;4.15;;;;;;;;;;5013415;28;20057;-68
2023/05/24 07:38:20;;;;;;;14.25;3.75;;;;;;;;;;5017466;28;20077;-68
2023/05/24 07:40:46;;;;;;;19.80;4.32;;;;;;;;;;5011834;28;20037;-67
2023/05/24 07:43:12;;;;;;;12.63;3.70;;;13.10;99.90;;;;;;5019310;28;20041;-68
2023/05/24 07:45:38;;;;;;;17.77;3.55;;;;;;;;;;5017577;28;20049;-68
2023/05/24 07:48:04;;;;;;;13.10;3.80;;;13.10;99.90;;;;;;5011261;28;20088;-68
2023/05/24 07:50:30;;;;;;;15.57;3.40;;;;;;;;;;5012075;28;20073;-68
2023/05/24 07:52:58;;;;;;;11.25;3.40;;;12.80;99.90;;;;;;4995676;28;20152;-67
2023/05/24 07:55:24;;;;;;;11.90;3.60;;;12.70;99.90;;;;;;5015381;28;20045;-68
2023/05/24 07:57:50;;;;;;;17.73;3.83;;;;;;;;;;5014051;28;20399;-67
2023/05/24 08:00:16;;;;;;;21.05;4.93;;;;;;;;;;4999262;28;20060;-68
2023/05/24 08:02:45;;;;;;;14.10;4.43;;;12.60;99.90;;;;;;5018087;28;20439;-68
2023/05/24 08:05:14;;;;;;;11.85;3.05;;;12.80;99.90;;;;;;5001354;28;20056;-68
2023/05/24 08:07:40;;;;;;;16.48;3.45;;;;;;;;;;5018526;28;20042;-67
2023/05/24 08:10:08;;;;;;;21.88;4.53;;;12.90;99.90;;;;;;4992204;28;20049;-68
2023/05/24 08:12:34;;;;;;;13.55;3.30;;;;;;;;;;5002709;28;20076;-69
2023/05/24 08:14:59;;;;;;;14.70;3.70;;;12.90;99.90;;;;;;4998441;28;20828;-69
2023/05/24 08:17:26;;;;;;;14.85;3.85;;;;;;;;;;5013584;28;20065;-70
2023/05/24 08:19:52;;;;;;;10.40;2.92;;;;;;;;;;5011655;28;20399;-69
2023/05/24 08:22:18;;;;;;;11.07;2.83;;;;;;;;;;5012231;28;20042;-70
2023/05/24 08:24:44;;;;;;;19.20;4.10;;;;;;;;;;5002254;28;20121;-78
2023/05/24 08:27:11;;;;;;;17.30;4.15;;;;;;;;;;5006076;28;20049;-74
2023/05/24 08:29:39;;;;;;;17.73;3.85;;;;;;;;;;5017068;28;20092;-78
2023/05/24 08:32:08;;;;;;;16.50;3.88;;;;;;;;;;5002240;28;20089;-68
2023/05/24 08:34:37;;;;;;;11.35;3.80;;;13.20;99.90;;;;;;5019897;28;20104;-68
2023/05/24 08:37:03;;;;;;;24.27;4.22;;;13.20;99.90;;;;;;5025734;28;20129;-68
2023/05/24 08:39:29;;;;;;;10.48;2.85;;;;;;;;;;5007375;28;20034;-68
2023/05/24 08:41:57;;;;;;;17.08;3.78;;;13.20;99.90;;;;;;5019141;28;20045;-68
2023/05/24 08:44:23;;;;;;;13.50;2.95;;;13.20;99.90;;;;;;5015672;28;20037;-67
2023/05/24 08:46:50;;;;;;;16.40;3.63;;;;;;;;;;5019634;28;20120;-67
2023/05/24 08:49:16;;;;;;;14.82;3.35;;;;;;;;;;5008086;28;20041;-71
2023/05/24 08:51:43;;;;;;;10.65;3.55;;;13.20;99.90;;;;;;5008048;28;20076;-73
2023/05/24 08:54:13;;;;;;;13.13;3.58;;;;;;;;;;5001364;28;21223;-69
2023/05/24 08:56:40;;;;;;;16.52;3.65;;;13.30;99.90;;;;;;5007854;28;20057;-68
2023/05/24 08:59:06;;;;;;;25.20;3.90;;;;;;;;;;4990091;28;20411;-68
2023/05/24 09:01:36;;;;;;;12.00;3.78;;;13.00;99.90;;;;;;5017369;28;20053;-68
2023/05/24 09:04:03;;;;;;;13.13;3.35;;;;;;;;;;5015967;28;20124;-68
2023/05/24 09:06:28;;;;;;;8.52;2.85;;;13.10;99.90;;;;;;5003737;28;20073;-68
2023/05/24 09:08:55;;;;;;;14.57;3.40;;;13.20;99.90;;;;;;5009027;28;20850;-68
2023/05/24 09:11:23;;;;;;;14.90;4.53;;;13.20;99.90;;;;;;4990200;28;20091;-68
2023/05/24 09:13:49;;;;;;;15.43;4.32;;;13.50;99.90;;;;;;5014004;28;20045;-68
2023/05/24 09:16:15;;;;;;;17.02;3.70;;;;;;;;;;5003006;28;20057;-68
2023/05/24 09:18:41;;;;;;;10.90;3.03;;;;;;;;;;5012066;28;20064;-68
2023/05/24 09:21:09;;;;;;;14.60;3.17;;;13.40;99.90;;;;;;5017913;28;20132;-68
2023/05/24 09:23:39;;;;;;;17.85;3.53;;;13.30;99.90;;;;;;4995001;28;20499;-68
2023/05/24 09:26:09;;;;;;;17.95;3.85;;;13.20;99.90;;;;;;5001675;28;20164;-68
2023/05/24 09:28:36;;;;;;;15.52;4.18;;;13.30;99.90;;;;;;5009406;28;20500;-68
2023/05/24 09:31:03;;;;;;;14.50;3.65;;;;;;;;;;5009781;28;20033;-68
2023/05/24 09:33:31;;;;;;;14.43;3.25;;;13.40;99.90;;;;;;5001181;28;20045;-67
2023/05/24 09:36:01;;;;;;;14.93;3.28;;;13.10;99.90;;;;;;5003652;28;20671;-67
2023/05/24 09:38:28;;;;;;;14.15;4.00;;;13.40;99.90;;;;;;4996290;28;20057;-67
2023/05/24 09:41:05;;;;;;;16.08;3.53;;;13.20;99.90;;;;;;4998206;28;20051;-68
2023/05/24 09:43:33;;;;;;;12.05;3.47;;;13.50;99.90;;;;;;4999365;28;20594;-68
2023/05/24 09:46:02;;;;;;;16.33;3.83;;;13.40;99.90;;;;;;5017919;28;20120;-70
2023/05/24 09:48:28;;;;;;;15.20;3.42;;;13.40;99.90;;;;;;5010783;28;20144;-71
2023/05/24 09:51:02;;;;;;;13.60;3.05;;;13.60;99.90;;;;;;4999655;28;20053;-68
2023/05/24 09:53:28;;;;;;;8.32;2.85;;;;;;;;;;5010343;28;20132;-67
2023/05/24 09:55:54;;;;;;;10.60;3.30;;;;;;;;;;5017156;28;20589;-69
2023/05/24 09:58:21;;;;;;;9.90;3.38;;;13.40;99.90;;;;;;5008380;28;20143;-69
2023/05/24 10:00:47;;;;;;;13.82;3.78;;;;;;;;;;5006147;28;20042;-68
2023/05/24 10:03:13;;;;;;;7.03;2.67;;;;;;;;;;4993889;28;20508;-67
2023/05/24 10:05:45;;;;;;;8.90;3.10;;;;;;;;;;5020992;28;20120;-71
2023/05/24 10:08:13;;;;;;;9.30;2.75;;;13.50;99.90;;;;;;5015040;28;20148;-71
2023/05/24 10:10:39;;;;;;;16.45;2.97;;;;;;;;;;4992034;28;20705;-70
2023/05/24 10:13:05;;;;;;;10.85;3.03;;;;;;;;;;5019081;28;20053;-71
2023/05/24 10:15:30;;;;;;;9.88;2.40;;;13.90;99.90;;;;;;5006194;28;20117;-71
2023/05/24 10:17:57;;;;;;;9.43;3.45;;;;;;;;;;5003632;28;20056;-73
2023/05/24 10:20:23;;;;;;;11.23;3.40;;;14.30;99.90;;;;;;4999097;28;20045;-74
2023/05/24 10:23:03;;;;;;;11.02;2.90;;;14.30;99.90;;;;;;4999087;28;20042;-73
2023/05/24 10:25:33;;;;;;;8.50;2.65;;;14.70;99.90;;;;;;5015520;28;20876;-74
2023/05/24 10:28:11;;;;;;;10.52;2.55;;;14.50;99.90;;;;;;4999735;28;20053;-74
2023/05/24 10:31:02;;;;;;;9.05;3.00;;;14.60;99.90;;;;;;5020818;28;20110;-73
2023/05/24 10:33:30;;;;;;;7.80;2.78;;;14.70;99.90;;;;;;5016170;28;20088;-74
2023/05/24 10:35:56;;;;;;;8.07;2.78;;;;;;;;;;4999477;28;20420;-73
2023/05/24 10:38:23;;;;;;;9.43;3.05;;;14.90;99.90;;;;;;5002236;28;20058;-73
2023/05/24 10:40:49;;;;;;;11.57;3.03;;;;;;;;;;4996374;28;20048;-73
2023/05/24 10:43:16;;;;;;;6.65;2.72;;;14.90;99.90;;;;;;4991416;28;20104;-70
2023/05/24 10:45:46;;;;;;;11.82;3.10;;;15.00;99.90;;;;;;5012843;28;20049;-69
2023/05/24 10:48:12;;;;;;;8.00;2.78;;;;;;;;;;4998313;28;20659;-70
2023/05/24 10:50:39;;;;;;;6.28;2.47;;;15.10;99.90;;;;;;5005998;28;20095;-70
2023/05/24 10:53:18;;;;;;;7.07;2.92;;;15.10;99.90;;;;;;5003389;28;20041;-69
2023/05/24 10:56:07;;;;;;;9.35;2.80;;;15.20;99.90;;;;;;5019608;28;20041;-69
2023/05/24 10:58:34;;;;;;;11.80;2.55;;;;;;;;;;4995806;28;20069;-70
2023/05/24 11:01:00;;;;;;;9.55;2.70;;;;;;;;;;4995221;28;20195;-69
2023/05/24 11:03:32;;;;;;;6.70;2.53;;;15.30;99.90;;;;;;4998567;28;20049;-73
2023/05/24 11:05:58;;;;;;;8.55;2.58;;;;;;;;;;5015226;28;20571;-71
2023/05/24 11:08:24;;;;;;;12.05;3.15;;;;;;;;;;5010165;28;20049;-71
2023/05/24 11:11:10;;;;;;;10.57;2.85;;;15.10;99.90;;;;;;5010706;28;20522;-71
2023/05/24 11:13:38;;;;;;;11.45;2.40;;;15.10;99.90;;;;;;4991255;28;20038;-73
2023/05/24 11:16:07;;;;;;;8.90;2.75;;;15.40;99.90;;;;;;5003811;28;20048;-74
2023/05/24 11:18:37;;;;;;;7.45;2.67;;;;;;;;;;5001675;28;20045;-73
2023/05/24 11:21:04;;;;;;;7.20;2.35;;;15.40;99.90;;;;;;5019241;28;20770;-70
2023/05/24 11:23:31;;;;;;;9.13;2.53;;;15.50;99.90;;;;;;5015229;28;20590;-70
2023/05/24 11:25:57;;;;;;;13.10;2.80;;;15.50;99.90;;;;;;5003640;28;20033;-71
2023/05/24 11:28:23;;;;;;;7.43;2.92;;;;;;;;;;4999383;28;20045;-71
2023/05/24 11:30:49;;;;;;;10.32;2.50;;;;;;;;;;5004742;28;20041;-71
2023/05/24 11:33:16;;;;;;;8.60;2.38;;;;;;;;;;5010432;28;20826;-70
2023/05/24 11:35:42;;;;;;;6.38;2.20;;;15.30;99.90;;;;;;5010328;28;20515;-71
2023/05/24 11:38:15;;;;;;;11.48;2.65;;;15.20;99.90;;;;;;4999422;28;20057;-72
2023/05/24 11:40:45;;;;;;;8.13;2.30;;;15.30;99.90;;;;;;5007905;28;20041;-72
2023/05/24 11:43:19;;;;;;;9.48;2.42;;;15.70;99.90;;;;;;5003801;28;20495;-72
2023/05/24 11:45:47;;;;;;;6.68;2.05;;;15.80;99.90;;;;;;4993619;28;20168;-73
2023/05/24 11:48:14;;;;;;;6.20;1.83;;;15.80;99.90;;;;;;5008773;28;20041;-73
2023/05/24 11:50:43;;;;;;;4.57;2.00;;;15.80;99.90;;;;;;5007376;28;20049;-72
2023/05/24 11:53:10;;;;;;;7.88;2.10;;;16.00;99.90;;;;;;5000567;28;20057;-72
2023/05/24 11:55:38;;;;;;;7.47;2.38;;;15.70;99.90;;;;;;4999065;28;20107;-72
2023/05/24 11:58:25;;;;;;;11.23;2.17;;;15.70;99.90;;;;;;4996764;28;20045;-72
2023/05/24 12:00:51;;;;;;;9.60;2.15;;;;;;;;;;5013727;28;20095;-72
2023/05/24 12:03:18;;;;;;;10.40;2.35;;;;;;;;;;5021800;28;20038;-72
2023/05/24 12:05:44;;;;;;;6.88;1.77;;;;;;;;;;5022326;28;20567;-72
2023/05/24 12:08:11;;;;;;;11.18;2.58;;;16.10;99.90;;;;;;5014745;28;20562;-72
2023/05/24 12:10:38;;;;;;;8.18;2.30;;;15.90;99.90;;;;;;5006688;28;20500;-72
2023/05/24 12:16:46;;;;;;;11.55;2.97;;;;;;;;;;5479052;22;20045;-86
2023/05/24 12:19:17;;;;;;;6.80;2.25;;;15.70;99.90;;;;;;4993901;28;20108;-87
2023/05/24 12:21:43;;;;;;;7.05;1.95;;;;;;;;;;4984388;28;20037;-87
2023/05/24 12:24:19;;;;;;;9.30;2.50;;;15.20;99.90;;;;;;4974376;28;20403;-87
2023/05/24 12:26:49;;;;;;;10.30;3.35;;;15.20;99.90;;;;;;5002563;28;20042;-87
2023/05/24 12:29:16;;;;;;;9.20;2.35;;;;;;;;;;4971613;28;20041;-88
2023/05/24 12:31:43;;;;;;;7.57;2.30;;;15.20;99.90;;;;;;4998276;28;20046;-88
2023/05/24 12:34:14;;;;;;;9.95;2.33;;;15.20;99.90;;;;;;4981659;28;20076;-88
2023/05/24 12:36:41;;;;;;;11.63;2.53;;;;;;;;;;4989914;28;20053;-88
2023/05/24 12:39:32;;;;;;;7.72;2.80;;;15.20;99.90;;;;;;4970789;28;20085;-88
2023/05/24 12:42:00;;;;;;;11.20;3.30;;;;;;;;;;4989542;28;20046;-88
2023/05/24 12:44:36;;;;;;;7.32;2.20;;;15.10;99.90;;;;;;5014581;28;20044;-88
2023/05/24 12:47:05;;;;;;;5.90;2.03;;;15.10;99.90;;;;;;4975980;28;20049;-88
2023/05/24 12:49:31;;;;;;;10.77;2.25;;;;;;;;;;5000337;28;20042;-88
2023/05/24 12:51:57;;;;;;;7.57;2.28;;;;;;;;;;4992782;28;20042;-89
2023/05/24 12:54:24;;;;;;;6.00;2.10;;;;;;;;;;4976651;28;20061;-90
2023/05/24 12:56:50;;;;;;;8.77;2.47;;;;;;;;;;4993519;28;20046;-88
2023/05/24 12:59:16;;;;;;;15.57;3.00;;;;;;;;;;4985019;28;20116;-90
2023/05/24 13:01:45;;;;;;;12.52;3.42;;;;;;;;;;5002647;28;20757;-88
2023/05/24 13:04:11;;;;;;;7.03;1.83;;;;;;;;;;4988917;28;20491;-91
2023/05/24 13:06:37;;;;;;;6.53;2.03;;;;;;;;;;4981425;28;20052;-89
2023/05/24 13:09:05;;;;;;;11.73;2.58;;;;;;;;;;4969610;28;20432;-88
2023/05/24 13:11:31;;;;;;;6.13;1.90;;;;;;;;;;4971588;28;20037;-88
2023/05/24 13:13:58;;;;;;;5.78;2.00;;;;;;;;;;5004978;28;20469;-88
2023/05/24 13:16:25;;;;;;;12.40;2.35;;;;;;;;;;4990744;28;20057;-88
2023/05/24 13:18:51;;;;;;;9.95;2.20;;;;;;;;;;4966799;28;20104;-88
2023/05/24 13:21:17;;;;;;;5.25;2.10;;;;;;;;;;4981144;28;20049;-88
2023/05/24 13:23:44;;;;;;;9.90;2.05;;;;;;;;;;4986121;28;20522;-87
2023/05/24 13:26:10;;;;;;;8.55;2.38;;;;;;;;;;4999342;28;20046;-88
2023/05/24 13:28:36;;;;;;;4.63;1.95;;;;;;;;;;4970536;28;20054;-89
2023/05/24 13:31:02;;;;;;;8.23;2.65;;;14.80;99.90;;;;;;4984237;28;20065;-89
2023/05/24 13:33:28;;;;;;;9.43;2.67;;;;;;;;;;4980500;28;20119;-89
2023/05/24 13:35:54;;;;;;;6.18;2.80;;;14.90;99.90;;;;;;4986424;28;20045;-86
2023/05/24 13:38:20;;;;;;;5.75;2.00;;;14.90;99.90;;;;;;5001625;28;20034;-86
2023/05/24 13:40:46;;;;;;;8.80;2.30;;;14.90;99.90;;;;;;5001231;28;20048;-85
2023/05/24 13:43:12;;;;;;;11.07;2.70;;;14.90;99.90;;;;;;4992477;28;20039;-85
2023/05/24 13:45:38;;;;;;;5.50;2.20;;;;;;;;;;4994282;28;20092;-85
2023/05/24 13:48:04;;;;;;;7.30;2.63;;;;;;;;;;4979699;28;20049;-85
2023/05/24 13:50:34;;;;;;;7.68;2.30;;;14.90;99.90;;;;;;4982098;28;20049;-85
2023/05/24 13:53:03;;;;;;;5.75;1.88;;;14.70;99.90;;;;;;4982673;28;20053;-85
2023/05/24 13:55:31;;;;;;;5.90;2.45;;;14.80;99.90;;;;;;4982697;28;20050;-85
2023/05/24 13:57:57;;;;;;;12.88;2.45;;;;;;;;;;4985943;28;20248;-85